Time;durP1;ratioP1;P1;durP2;ratioP2;P2;SDS_P1;SDS_P2;PMS_P1;PMS_P2;Temp;Humidity;BMP_temperature;BMP_pressure;BME280_temperature;BME280_humidity;BME280_pressure;Samples;Min_cycle;Max_cycle;Signal;HPM_P1;HPM_P2
2021/11/07 00:00:02;;;;;;;21.13;9.93;;;2.30;97.00;;;;;;4956765;28;20299;-76
2021/11/07 00:05:04;;;;;;;16.88;8.85;;;2.40;97.20;;;;;;4955586;28;20238;-76
2021/11/07 00:07:51;;;;;;;20.48;10.13;;;2.30;97.20;;;;;;4948547;29;20753;-76
2021/11/07 00:10:36;;;;;;;17.42;9.10;;;2.30;97.20;;;;;;4952395;28;20656;-76
2021/11/07 00:16:04;;;;;;;23.73;9.88;;;2.30;97.40;;;;;;4952753;28;20310;-76
2021/11/07 00:18:41;;;;;;;19.55;10.10;;;2.30;97.50;;;;;;4953733;29;20236;-76
2021/11/07 00:21:14;;;;;;;21.80;9.88;;;2.30;97.50;;;;;;4954648;29;20663;-76
2021/11/07 00:29:30;;;;;;;20.85;9.70;;;2.20;97.60;;;;;;4946001;29;20617;-77
2021/11/07 00:37:24;;;;;;;22.50;11.15;;;2.20;97.60;;;;;;4947087;29;20284;-76
2021/11/07 00:40:16;;;;;;;25.35;11.38;;;2.20;97.70;;;;;;4949785;29;20211;-76
2021/11/07 00:43:00;;;;;;;26.45;11.90;;;2.10;97.70;;;;;;4939619;29;20782;-75
2021/11/07 00:45:44;;;;;;;24.13;11.05;;;2.00;97.80;;;;;;4941233;29;20633;-76
2021/11/07 00:58:45;;;;;;;26.95;12.02;;;2.00;98.40;;;;;;4929746;29;20181;-76
2021/11/07 01:01:15;;;;;;;20.48;11.10;;;1.90;98.20;;;;;;4932951;29;20627;-75
2021/11/07 01:03:42;;;;;;;26.27;11.60;;;1.90;98.20;;;;;;4946553;29;20285;-75
2021/11/07 01:06:07;;;;;;;20.67;10.52;;;2.00;98.40;;;;;;4955844;28;20207;-76
2021/11/07 01:08:34;;;;;;;19.93;11.17;;;2.00;98.40;;;;;;4952653;28;20180;-75
2021/11/07 01:11:01;;;;;;;23.13;10.73;;;2.00;98.20;;;;;;4956399;28;20211;-76
2021/11/07 01:13:28;;;;;;;21.23;10.45;;;2.10;98.20;;;;;;4949674;29;20203;-75
2021/11/07 01:15:54;;;;;;;23.15;9.73;;;2.00;98.00;;;;;;4954837;28;20582;-75
2021/11/07 01:18:20;;;;;;;21.92;10.35;;;2.00;97.90;;;;;;4949674;28;20211;-77
2021/11/07 01:20:47;;;;;;;24.30;11.40;;;2.00;98.00;;;;;;4954889;29;20195;-75
2021/11/07 01:23:21;;;;;;;28.27;12.02;;;2.10;97.90;;;;;;4948207;29;20674;-75
2021/11/07 01:25:51;;;;;;;20.90;10.68;;;2.10;97.90;;;;;;4955310;28;20331;-76
2021/11/07 01:28:18;;;;;;;18.08;9.80;;;2.20;97.80;;;;;;4954162;29;20706;-76
2021/11/07 01:30:51;;;;;;;18.98;9.65;;;2.20;97.80;;;;;;4950083;28;20175;-75
2021/11/07 01:33:21;;;;;;;20.52;10.35;;;2.20;97.80;;;;;;4954962;29;20188;-75
2021/11/07 01:35:58;;;;;;;22.35;10.45;;;2.30;97.70;;;;;;4948718;28;20232;-76
2021/11/07 01:38:38;;;;;;;16.00;9.27;;;2.40;97.70;;;;;;4949256;29;20184;-76
2021/11/07 01:41:24;;;;;;;18.60;9.02;;;2.40;97.50;;;;;;4956990;29;20621;-76
2021/11/07 01:43:50;;;;;;;22.38;10.20;;;2.60;97.40;;;;;;4958566;29;20298;-77
2021/11/07 01:48:50;;;;;;;18.90;10.07;;;2.60;96.90;;;;;;4963241;29;20195;-75
2021/11/07 01:51:16;;;;;;;17.77;9.48;;;2.60;96.70;;;;;;4956388;28;20548;-76
2021/11/07 01:53:44;;;;;;;18.23;10.20;;;2.60;96.60;;;;;;4954578;28;20191;-75
2021/11/07 01:56:13;;;;;;;22.50;10.18;;;2.60;96.40;;;;;;4945858;28;20211;-76
2021/11/07 01:58:41;;;;;;;18.45;9.90;;;2.60;96.40;;;;;;4954387;28;20184;-76
2021/11/07 02:01:08;;;;;;;16.88;9.40;;;2.70;96.60;;;;;;4954850;28;20640;-76
2021/11/07 02:03:34;;;;;;;22.83;9.55;;;2.70;96.50;;;;;;4953582;28;20327;-77
2021/11/07 02:06:01;;;;;;;18.75;9.63;;;2.80;96.50;;;;;;4954717;28;20607;-76
2021/11/07 02:08:28;;;;;;;20.63;10.02;;;2.70;96.20;;;;;;4952973;29;20184;-77
2021/11/07 02:10:56;;;;;;;19.05;8.40;;;2.80;96.30;;;;;;4948802;29;20251;-76
2021/11/07 02:13:25;;;;;;;17.85;9.40;;;2.90;96.20;;;;;;4955540;29;20270;-75
2021/11/07 02:15:51;;;;;;;20.83;9.70;;;3.00;96.20;;;;;;4955372;28;20202;-76
2021/11/07 02:18:18;;;;;;;16.30;8.85;;;3.00;95.70;;;;;;4952131;28;20223;-76
2021/11/07 02:20:47;;;;;;;18.52;9.25;;;3.10;95.50;;;;;;4957295;29;20188;-76
2021/11/07 02:23:22;;;;;;;17.77;9.23;;;3.10;95.40;;;;;;4959327;28;20218;-75
2021/11/07 02:25:52;;;;;;;22.08;9.80;;;3.10;95.50;;;;;;4953862;28;20443;-75
2021/11/07 02:28:26;;;;;;;21.20;9.43;;;3.20;95.40;;;;;;4954566;28;20678;-77
2021/11/07 02:30:52;;;;;;;19.77;9.60;;;3.20;95.30;;;;;;4943039;28;20188;-76
2021/11/07 02:33:18;;;;;;;18.67;9.00;;;3.10;95.20;;;;;;4949263;29;20391;-76
2021/11/07 02:35:44;;;;;;;17.55;8.38;;;3.10;95.30;;;;;;4954430;28;20474;-76
2021/11/07 02:38:10;;;;;;;16.50;9.43;;;3.10;95.30;;;;;;4950327;28;20188;-76
2021/11/07 02:40:36;;;;;;;17.67;9.50;;;3.20;95.40;;;;;;4955012;29;20180;-76
2021/11/07 02:43:01;;;;;;;21.60;10.40;;;3.20;95.40;;;;;;4953260;29;20214;-75
2021/11/07 02:45:29;;;;;;;18.13;8.73;;;3.20;95.40;;;;;;4954222;28;20757;-76
2021/11/07 02:47:56;;;;;;;22.02;9.85;;;3.20;95.40;;;;;;4951290;29;20419;-75
2021/11/07 02:50:22;;;;;;;18.55;9.40;;;3.20;95.30;;;;;;4956082;28;20179;-76
2021/11/07 02:52:48;;;;;;;21.20;10.23;;;3.10;95.40;;;;;;4955900;29;20198;-77
2021/11/07 02:55:15;;;;;;;25.38;11.75;;;3.20;95.40;;;;;;4956776;28;20203;-76
2021/11/07 02:57:41;;;;;;;24.90;11.52;;;3.20;95.40;;;;;;4949241;28;20190;-78
2021/11/07 03:00:10;;;;;;;21.57;10.87;;;3.20;95.30;;;;;;4951137;28;20179;-76
2021/11/07 03:02:36;;;;;;;25.20;11.70;;;3.20;95.30;;;;;;4953727;28;20471;-76
2021/11/07 03:05:05;;;;;;;26.65;13.13;;;3.30;95.40;;;;;;4952258;28;20204;-78
2021/11/07 03:07:31;;;;;;;21.08;10.23;;;3.30;95.10;;;;;;4946260;29;20199;-76
2021/11/07 03:09:57;;;;;;;26.53;11.93;;;3.20;95.10;;;;;;4952558;29;20188;-75
2021/11/07 03:12:22;;;;;;;22.80;11.50;;;3.20;95.10;;;;;;4953770;29;20192;-76
2021/11/07 03:14:52;;;;;;;22.30;10.57;;;3.10;95.10;;;;;;4944234;28;20644;-75
2021/11/07 03:17:25;;;;;;;24.48;11.93;;;3.10;95.30;;;;;;4952099;29;20290;-77
2021/11/07 03:19:53;;;;;;;22.98;11.27;;;3.20;95.60;;;;;;4952341;28;20188;-75
2021/11/07 03:22:21;;;;;;;26.90;12.43;;;3.30;95.30;;;;;;4945870;28;20222;-76
2021/11/07 03:24:52;;;;;;;24.40;11.60;;;3.10;95.00;;;;;;4951600;28;20510;-75
2021/11/07 03:27:29;;;;;;;21.30;11.95;;;3.00;95.10;;;;;;4946843;28;20189;-76
2021/11/07 03:29:57;;;;;;;25.73;12.23;;;2.90;95.30;;;;;;4951930;28;20180;-76
2021/11/07 03:32:30;;;;;;;24.10;11.50;;;2.90;95.50;;;;;;4952281;28;20198;-75
2021/11/07 03:35:04;;;;;;;21.27;11.18;;;2.90;95.70;;;;;;4939050;29;20194;-76
2021/11/07 03:37:43;;;;;;;27.50;13.20;;;2.90;95.80;;;;;;4947878;29;20184;-75
2021/11/07 03:40:10;;;;;;;26.75;13.68;;;2.80;95.70;;;;;;4953357;28;20722;-75
2021/11/07 03:42:36;;;;;;;25.00;11.35;;;2.60;95.80;;;;;;4949840;28;20215;-75
2021/11/07 03:45:03;;;;;;;26.98;11.25;;;2.50;95.90;;;;;;4952192;28;20295;-75
2021/11/07 03:47:29;;;;;;;19.55;10.65;;;2.40;96.30;;;;;;4949295;28;20215;-76
2021/11/07 03:49:55;;;;;;;22.03;11.97;;;2.40;96.50;;;;;;4946716;29;20172;-76
2021/11/07 03:52:21;;;;;;;23.30;11.40;;;2.40;96.60;;;;;;4950852;28;20950;-77
2021/11/07 03:54:49;;;;;;;24.43;10.93;;;2.40;96.70;;;;;;4946466;28;20435;-76
2021/11/07 03:57:15;;;;;;;22.38;11.85;;;2.40;96.80;;;;;;4946964;28;21805;-76
2021/11/07 03:59:45;;;;;;;22.27;10.80;;;2.50;96.90;;;;;;4947850;29;20222;-76
2021/11/07 04:02:13;;;;;;;23.30;11.32;;;2.50;96.90;;;;;;4952604;28;20427;-75
2021/11/07 04:04:39;;;;;;;19.80;10.45;;;2.40;96.90;;;;;;4952072;28;20184;-76
2021/11/07 04:07:05;;;;;;;21.35;11.57;;;2.50;96.90;;;;;;4949348;28;20211;-76
2021/11/07 04:09:31;;;;;;;23.67;11.57;;;2.60;97.00;;;;;;4953026;28;20228;-77
2021/11/07 04:11:58;;;;;;;20.03;10.43;;;2.60;97.00;;;;;;4951209;29;20846;-76
2021/11/07 04:14:25;;;;;;;21.23;11.38;;;2.60;97.00;;;;;;4947046;28;20434;-76
2021/11/07 04:16:51;;;;;;;25.67;10.77;;;2.60;97.00;;;;;;4953513;28;20717;-76
2021/11/07 04:19:17;;;;;;;23.70;10.93;;;2.70;97.00;;;;;;4955063;28;20196;-76
2021/11/07 04:21:47;;;;;;;23.33;12.15;;;2.70;96.80;;;;;;4951299;29;20287;-76
2021/11/07 04:24:12;;;;;;;18.42;9.85;;;2.80;96.80;;;;;;4955330;28;20220;-76
2021/11/07 04:26:38;;;;;;;21.00;11.07;;;2.80;96.70;;;;;;4949842;29;20671;-76
2021/11/07 04:29:04;;;;;;;23.93;11.37;;;2.80;96.60;;;;;;4956066;28;20424;-75
2021/11/07 04:31:31;;;;;;;23.08;10.35;;;2.80;96.50;;;;;;4949003;28;20258;-76
2021/11/07 04:33:57;;;;;;;22.92;11.07;;;2.80;96.60;;;;;;4955295;28;20250;-76
2021/11/07 04:36:23;;;;;;;21.87;11.23;;;2.80;96.50;;;;;;4947637;28;20690;-77
2021/11/07 04:38:48;;;;;;;22.83;10.73;;;2.80;96.60;;;;;;4956127;28;20238;-76
2021/11/07 04:41:18;;;;;;;20.23;10.27;;;2.80;96.60;;;;;;4954831;29;20544;-76
2021/11/07 04:43:46;;;;;;;23.42;11.00;;;2.80;96.60;;;;;;4955312;28;20211;-76
2021/11/07 04:46:14;;;;;;;27.85;11.98;;;2.80;96.60;;;;;;4950143;28;20383;-76
2021/11/07 04:48:43;;;;;;;23.73;11.98;;;2.90;96.70;;;;;;4956125;28;20180;-77
2021/11/07 04:51:09;;;;;;;22.20;10.00;;;3.00;96.90;;;;;;4948774;29;20188;-75
2021/11/07 04:53:35;;;;;;;20.00;10.37;;;3.00;96.80;;;;;;4956193;28;20196;-75
2021/11/07 04:56:01;;;;;;;20.43;10.10;;;3.10;96.70;;;;;;4950081;28;20378;-76
2021/11/07 04:58:27;;;;;;;20.77;11.07;;;3.00;96.60;;;;;;4953828;29;20192;-75
2021/11/07 05:00:53;;;;;;;18.70;9.93;;;3.10;96.60;;;;;;4949383;28;20197;-76
2021/11/07 05:03:19;;;;;;;19.97;10.50;;;3.00;96.50;;;;;;4951679;29;20222;-77
2021/11/07 05:05:45;;;;;;;21.63;10.13;;;3.10;96.50;;;;;;4955476;28;20451;-78
2021/11/07 05:08:11;;;;;;;21.53;10.77;;;3.10;96.40;;;;;;4950956;29;20210;-75
2021/11/07 05:10:37;;;;;;;19.40;10.60;;;3.20;96.30;;;;;;4955666;28;20438;-76
2021/11/07 05:13:04;;;;;;;20.97;10.53;;;3.20;96.20;;;;;;4957879;28;20188;-76
2021/11/07 05:15:30;;;;;;;21.85;11.45;;;3.30;96.10;;;;;;4961810;28;20439;-78
2021/11/07 05:17:56;;;;;;;22.20;9.83;;;3.30;95.90;;;;;;4955994;28;20230;-76
2021/11/07 05:20:22;;;;;;;23.13;10.30;;;3.30;95.70;;;;;;4951973;28;20436;-75
2021/11/07 05:22:47;;;;;;;18.37;9.03;;;3.30;95.50;;;;;;4954835;28;20199;-76
2021/11/07 05:25:14;;;;;;;22.57;10.53;;;3.30;95.30;;;;;;4952196;28;20230;-76
2021/11/07 05:27:40;;;;;;;19.70;9.98;;;3.30;95.20;;;;;;4946040;29;20202;-76
2021/11/07 05:30:08;;;;;;;22.27;11.00;;;3.20;95.20;;;;;;4950288;29;20192;-76
2021/11/07 05:32:34;;;;;;;17.13;9.65;;;3.20;95.20;;;;;;4954775;28;20204;-76
2021/11/07 05:35:00;;;;;;;21.10;10.10;;;3.20;95.20;;;;;;4950776;28;20242;-76
2021/11/07 05:37:26;;;;;;;19.40;9.50;;;3.20;95.30;;;;;;4955122;28;20420;-76
2021/11/07 05:39:53;;;;;;;19.13;9.73;;;3.20;95.30;;;;;;4955696;28;20188;-76
2021/11/07 05:42:19;;;;;;;17.73;9.82;;;3.20;95.30;;;;;;4952443;28;20192;-76
2021/11/07 05:44:45;;;;;;;23.38;9.57;;;3.30;95.20;;;;;;4948958;28;20227;-76
2021/11/07 05:47:11;;;;;;;24.67;10.27;;;3.20;94.90;;;;;;4951372;28;20192;-75
2021/11/07 05:49:36;;;;;;;22.17;11.10;;;3.20;94.90;;;;;;4948550;29;20180;-76
2021/11/07 05:52:04;;;;;;;18.33;9.87;;;3.20;94.90;;;;;;4954834;28;20195;-76
2021/11/07 05:54:30;;;;;;;26.25;11.20;;;3.10;94.90;;;;;;4950834;28;20422;-76
2021/11/07 05:56:57;;;;;;;17.80;9.17;;;3.00;95.10;;;;;;4954365;28;20196;-76
2021/11/07 05:59:23;;;;;;;22.65;10.50;;;3.00;95.60;;;;;;4953411;28;20946;-76
2021/11/07 06:01:48;;;;;;;19.63;9.70;;;3.00;95.80;;;;;;4946980;28;20274;-76
2021/11/07 06:04:14;;;;;;;20.40;10.10;;;3.00;96.00;;;;;;4952725;29;20294;-75
2021/11/07 06:06:40;;;;;;;24.00;11.00;;;3.10;96.20;;;;;;4953582;28;20452;-77
2021/11/07 06:09:06;;;;;;;20.50;9.40;;;3.00;96.30;;;;;;4951171;29;20570;-76
2021/11/07 06:11:31;;;;;;;21.13;10.60;;;3.00;96.20;;;;;;4954973;28;20820;-76
2021/11/07 06:13:57;;;;;;;25.73;11.07;;;2.90;96.20;;;;;;4954155;28;20315;-77
2021/11/07 06:16:23;;;;;;;22.80;10.37;;;2.90;96.40;;;;;;4954077;28;20258;-77
2021/11/07 06:18:49;;;;;;;23.20;11.20;;;2.80;96.40;;;;;;4948851;29;20243;-76
2021/11/07 06:21:15;;;;;;;27.07;10.37;;;2.90;96.60;;;;;;4954208;28;20286;-75
2021/11/07 06:23:41;;;;;;;22.05;10.38;;;3.00;96.70;;;;;;4945738;29;20239;-76
2021/11/07 06:26:07;;;;;;;18.53;9.27;;;3.20;96.40;;;;;;4955137;28;20231;-78
2021/11/07 06:28:33;;;;;;;18.92;9.95;;;3.40;96.10;;;;;;4952104;28;20215;-76
2021/11/07 06:31:04;;;;;;;17.27;10.20;;;3.50;95.60;;;;;;4952593;29;20225;-76
2021/11/07 06:33:30;;;;;;;20.38;9.50;;;3.50;95.20;;;;;;4952898;29;20428;-76
2021/11/07 06:35:56;;;;;;;20.23;9.50;;;3.70;95.10;;;;;;4944420;28;20204;-76
2021/11/07 06:38:22;;;;;;;22.50;10.00;;;3.80;94.70;;;;;;4954295;29;20428;-76
2021/11/07 06:40:48;;;;;;;22.00;10.30;;;3.80;94.20;;;;;;4953316;28;20448;-76
2021/11/07 06:43:14;;;;;;;19.40;10.57;;;3.80;94.10;;;;;;4952492;29;20247;-76
2021/11/07 06:45:40;;;;;;;18.95;10.43;;;3.80;94.10;;;;;;4951982;28;20691;-76
2021/11/07 06:48:06;;;;;;;21.30;11.07;;;3.90;94.10;;;;;;4951225;29;20652;-75
2021/11/07 06:50:33;;;;;;;23.63;11.50;;;4.00;93.80;;;;;;4951000;29;20430;-77
2021/11/07 06:52:59;;;;;;;24.63;10.60;;;4.00;93.50;;;;;;4950212;29;20427;-76
2021/11/07 06:55:26;;;;;;;22.97;10.07;;;4.10;93.40;;;;;;4942730;28;20208;-76
2021/11/07 06:57:51;;;;;;;20.13;10.57;;;4.10;93.30;;;;;;4955013;28;20471;-77
2021/11/07 07:00:21;;;;;;;25.07;10.40;;;4.20;93.00;;;;;;4952852;28;20218;-76
2021/11/07 07:02:47;;;;;;;26.05;12.25;;;4.10;92.90;;;;;;4947244;29;20470;-77
2021/11/07 07:05:16;;;;;;;19.50;10.27;;;4.10;93.00;;;;;;4952537;28;20208;-76
2021/11/07 07:07:48;;;;;;;20.13;10.03;;;4.10;93.10;;;;;;4951850;28;20187;-75
2021/11/07 07:10:26;;;;;;;24.58;10.95;;;4.20;93.10;;;;;;4954661;28;20780;-77
2021/11/07 07:13:01;;;;;;;23.15;11.75;;;4.20;93.10;;;;;;4950367;28;20338;-77
2021/11/07 07:15:29;;;;;;;23.88;10.15;;;4.30;93.10;;;;;;4954739;28;20610;-76
2021/11/07 07:20:48;;;;;;;21.63;10.40;;;4.40;93.00;;;;;;4954096;28;20438;-76
2021/11/07 07:23:38;;;;;;;22.50;10.70;;;4.50;92.70;;;;;;4948239;28;21224;-76
2021/11/07 07:26:31;;;;;;;19.10;9.83;;;4.50;92.60;;;;;;4954266;28;20450;-75
2021/11/07 07:34:23;;;;;;;30.33;12.77;;;4.70;92.40;;;;;;4952739;29;20442;-76
2021/11/07 07:36:49;;;;;;;18.70;10.47;;;4.60;92.30;;;;;;4948575;29;20435;-76
2021/11/07 07:39:15;;;;;;;20.87;10.97;;;4.70;92.40;;;;;;4949050;28;20431;-77
2021/11/07 07:41:42;;;;;;;22.33;10.80;;;4.70;92.40;;;;;;4954351;29;20415;-76
2021/11/07 07:44:09;;;;;;;20.27;10.80;;;4.80;92.50;;;;;;4946029;28;20470;-77
2021/11/07 07:46:43;;;;;;;23.67;10.80;;;4.90;92.30;;;;;;4942881;29;20930;-76
2021/11/07 07:49:14;;;;;;;27.47;13.20;;;4.90;92.10;;;;;;4956044;28;20441;-77
2021/11/07 07:51:40;;;;;;;24.83;12.97;;;4.90;92.10;;;;;;4957216;28;20562;-77
2021/11/07 07:54:07;;;;;;;25.97;11.60;;;5.00;92.20;;;;;;4945078;29;20959;-75
2021/11/07 07:56:34;;;;;;;21.60;10.90;;;5.00;92.00;;;;;;4957252;28;20478;-75
2021/11/07 07:59:01;;;;;;;21.23;11.03;;;5.10;92.20;;;;;;4954063;28;20428;-75
2021/11/07 08:01:27;;;;;;;19.30;10.60;;;5.10;92.10;;;;;;4956190;29;20427;-78
2021/11/07 08:03:54;;;;;;;27.43;11.50;;;5.10;92.00;;;;;;4954829;28;20470;-75
2021/11/07 08:06:20;;;;;;;23.73;10.87;;;5.10;92.10;;;;;;4957486;28;20439;-78
2021/11/07 08:08:46;;;;;;;25.70;11.37;;;5.10;92.10;;;;;;4953691;28;20479;-78
2021/11/07 08:11:14;;;;;;;24.30;11.57;;;5.10;92.20;;;;;;4962996;29;20429;-76
2021/11/07 08:13:41;;;;;;;20.20;9.97;;;5.20;92.20;;;;;;4966809;28;20431;-75
2021/11/07 08:16:06;;;;;;;24.00;11.70;;;5.20;92.10;;;;;;4968294;28;20450;-78
2021/11/07 08:18:33;;;;;;;19.87;9.70;;;5.20;92.20;;;;;;4959734;28;21052;-77
2021/11/07 08:20:59;;;;;;;25.33;10.17;;;5.30;92.00;;;;;;4957079;28;20203;-76
2021/11/07 08:23:25;;;;;;;20.80;9.87;;;5.50;91.80;;;;;;4948991;28;20474;-76
2021/11/07 08:25:52;;;;;;;24.63;10.60;;;5.60;91.30;;;;;;4955627;28;20439;-76
2021/11/07 08:28:20;;;;;;;18.33;9.63;;;5.70;90.90;;;;;;4957409;28;20419;-76
2021/11/07 08:30:51;;;;;;;18.07;8.80;;;5.80;90.20;;;;;;4951378;28;20411;-77
2021/11/07 08:33:17;;;;;;;18.60;8.83;;;5.80;89.50;;;;;;4955614;29;20432;-77
2021/11/07 08:35:45;;;;;;;15.07;8.23;;;5.90;88.40;;;;;;4949758;28;20444;-76
2021/11/07 08:38:16;;;;;;;15.47;8.23;;;5.90;88.00;;;;;;4952814;29;20432;-76
2021/11/07 08:40:46;;;;;;;17.67;6.93;;;6.00;87.80;;;;;;4958261;29;20427;-76
2021/11/07 09:05:01;;;;;;;16.97;9.17;;;6.30;85.50;;;;;;4955905;28;20415;-77
2021/11/07 09:10:11;;;;;;;16.87;8.40;;;6.40;85.70;;;;;;4956542;29;20961;-77
2021/11/07 09:12:38;;;;;;;18.73;8.93;;;6.50;84.40;;;;;;4948711;29;20431;-76
2021/11/07 09:15:05;;;;;;;18.23;8.60;;;6.50;83.70;;;;;;4945562;28;20506;-76
2021/11/07 09:17:31;;;;;;;17.13;8.33;;;6.50;83.40;;;;;;4956507;29;20953;-79
2021/11/07 09:19:58;;;;;;;20.73;8.47;;;6.70;83.80;;;;;;4956088;28;20415;-77
2021/11/07 09:22:32;;;;;;;19.70;9.27;;;7.00;83.60;;;;;;4949245;28;20802;-76
2021/11/07 09:25:04;;;;;;;12.20;6.13;;;7.30;82.70;;;;;;4956021;29;20793;-76
2021/11/07 09:27:45;;;;;;;15.23;6.53;;;7.40;79.30;;;;;;4957274;28;20475;-76
2021/11/07 09:30:19;;;;;;;13.93;6.67;;;7.60;78.30;;;;;;4949052;29;20397;-76
2021/11/07 09:38:17;;;;;;;10.50;5.60;;;8.00;75.90;;;;;;4967849;28;20479;-75
2021/11/07 09:48:57;;;;;;;9.80;5.80;;;8.00;76.20;;;;;;4949778;28;20801;-77
2021/11/07 09:51:28;;;;;;;12.10;5.50;;;8.00;76.20;;;;;;4965597;28;20491;-77
2021/11/07 09:53:55;;;;;;;9.03;5.10;;;8.10;76.20;;;;;;4965639;28;20423;-77
2021/11/07 09:56:23;;;;;;;7.60;4.87;;;8.30;76.10;;;;;;4971924;28;20451;-75
2021/11/07 09:58:52;;;;;;;10.70;5.03;;;8.40;75.40;;;;;;4970713;28;20531;-77
2021/11/07 10:01:19;;;;;;;9.40;5.00;;;8.40;74.60;;;;;;4953776;28;20427;-77
2021/11/07 10:03:46;;;;;;;7.97;4.20;;;8.50;74.50;;;;;;4969216;28;20474;-77
2021/11/07 10:06:30;;;;;;;7.00;3.70;;;8.70;74.60;;;;;;4971718;28;20811;-77
2021/11/07 10:08:57;;;;;;;6.67;3.63;;;8.90;73.90;;;;;;4968869;28;20551;-77
2021/11/07 10:11:35;;;;;;;7.17;3.90;;;8.90;72.30;;;;;;4974368;28;20514;-77
2021/11/07 10:14:20;;;;;;;5.70;3.33;;;9.00;71.70;;;;;;4954306;29;21214;-77
2021/11/07 10:16:52;;;;;;;7.87;4.23;;;9.30;72.70;;;;;;4953480;28;20458;-77
2021/11/07 10:19:35;;;;;;;7.77;4.23;;;9.50;71.80;;;;;;4955114;28;20450;-77
2021/11/07 10:22:02;;;;;;;7.70;3.77;;;9.70;71.30;;;;;;4943991;29;20448;-76
2021/11/07 10:24:33;;;;;;;5.77;3.40;;;9.70;70.50;;;;;;4954104;29;20575;-76
2021/11/07 10:27:06;;;;;;;5.43;3.50;;;9.90;70.20;;;;;;4955455;28;20820;-75
2021/11/07 10:29:47;;;;;;;4.90;2.90;;;10.00;69.80;;;;;;4950183;29;20483;-77
2021/11/07 10:32:25;;;;;;;6.10;3.77;;;10.20;68.80;;;;;;4946133;29;20530;-76
2021/11/07 10:41:56;;;;;;;4.77;2.90;;;10.40;66.70;;;;;;4949544;29;21435;-76
2021/11/07 10:52:47;;;;;;;3.93;2.80;;;10.80;66.60;;;;;;4953585;29;20810;-76
2021/11/07 10:55:32;;;;;;;3.60;2.90;;;10.80;66.40;;;;;;4952344;28;20809;-76
2021/11/07 10:58:03;;;;;;;8.30;4.30;;;11.00;66.10;;;;;;4950549;29;20516;-75
2021/11/07 11:00:30;;;;;;;6.97;3.50;;;10.80;66.60;;;;;;4949200;29;20424;-76
2021/11/07 11:03:07;;;;;;;4.87;3.30;;;10.80;66.70;;;;;;4951963;28;20494;-77
2021/11/07 11:06:06;;;;;;;6.10;3.50;;;10.80;67.50;;;;;;4951078;28;20450;-76
2021/11/07 11:08:43;;;;;;;5.60;3.27;;;10.80;67.70;;;;;;4948377;29;20548;-77
2021/11/07 11:11:26;;;;;;;5.13;3.13;;;10.80;68.20;;;;;;4952613;29;20420;-76
2021/11/07 11:16:44;;;;;;;5.70;3.03;;;10.90;68.20;;;;;;4955833;28;20716;-75
2021/11/07 11:37:41;;;;;;;5.53;2.37;;;11.40;68.20;;;;;;4958302;28;20423;-77
2021/11/07 11:45:37;;;;;;;3.37;2.30;;;11.60;67.70;;;;;;4954920;28;20934;-76
2021/11/07 11:55:58;;;;;;;2.20;1.80;;;11.40;68.30;;;;;;4951564;28;20470;-77
2021/11/07 11:59:01;;;;;;;2.57;1.40;;;11.40;68.60;;;;;;4957192;29;20446;-76
2021/11/07 12:04:32;;;;;;;2.17;1.20;;;11.50;69.20;;;;;;4954053;29;20478;-76
2021/11/07 12:07:19;;;;;;;2.23;1.33;;;11.70;68.20;;;;;;4956060;29;20443;-75
2021/11/07 12:09:59;;;;;;;2.57;1.40;;;12.10;67.30;;;;;;4939883;29;20396;-76
2021/11/07 12:12:56;;;;;;;2.33;1.43;;;12.40;66.60;;;;;;4937290;29;20440;-77
2021/11/07 12:18:04;;;;;;;2.50;1.30;;;12.70;65.80;;;;;;4944724;29;20442;-77
2021/11/07 12:20:34;;;;;;;1.50;1.40;;;12.90;65.80;;;;;;4952567;29;20442;-75
2021/11/07 12:23:21;;;;;;;1.80;1.33;;;13.20;65.30;;;;;;4952931;29;21009;-76
2021/11/07 12:25:48;;;;;;;1.30;1.20;;;13.30;64.80;;;;;;4945741;29;20799;-77
2021/11/07 12:28:16;;;;;;;2.10;1.30;;;13.10;65.00;;;;;;4948509;29;20424;-77
2021/11/07 12:30:42;;;;;;;3.20;1.17;;;12.90;65.70;;;;;;4935476;29;20423;-77
2021/11/07 12:33:20;;;;;;;1.27;1.10;;;13.00;65.60;;;;;;4951280;29;20567;-76
2021/11/07 12:36:07;;;;;;;2.30;1.60;;;13.20;65.60;;;;;;4954220;29;20887;-77
2021/11/07 12:41:25;;;;;;;2.20;1.40;;;13.60;64.10;;;;;;4957430;29;20450;-77
2021/11/07 12:44:01;;;;;;;2.60;1.40;;;13.50;65.00;;;;;;4943730;29;20460;-75
2021/11/07 12:46:55;;;;;;;2.23;1.20;;;13.60;65.30;;;;;;4956899;28;20450;-77
2021/11/07 12:49:23;;;;;;;11.63;1.73;;;13.70;65.60;;;;;;4940341;29;20491;-78
2021/11/07 12:52:16;;;;;;;1.57;1.00;;;13.80;65.60;;;;;;4956910;28;21177;-77
2021/11/07 12:54:44;;;;;;;2.43;1.70;;;13.90;65.00;;;;;;4948720;28;20856;-76
2021/11/07 12:57:12;;;;;;;1.63;1.30;;;13.80;64.50;;;;;;4941722;29;20432;-77
2021/11/07 12:59:47;;;;;;;3.40;1.83;;;13.60;65.60;;;;;;4957329;28;20506;-77
2021/11/07 13:02:16;;;;;;;1.50;1.00;;;13.50;66.10;;;;;;4955511;29;20415;-77
2021/11/07 13:05:16;;;;;;;4.40;1.57;;;13.50;66.00;;;;;;4957236;28;21005;-77
2021/11/07 13:24:19;;;;;;;1.17;1.00;;;12.40;73.30;;;;;;4943149;29;20470;-76
2021/11/07 13:27:15;;;;;;;1.83;1.33;;;12.10;74.00;;;;;;4953347;29;20447;-76
2021/11/07 13:30:03;;;;;;;2.80;1.50;;;11.90;75.50;;;;;;4953586;29;20887;-76
2021/11/07 13:35:04;;;;;;;2.80;1.40;;;11.70;77.80;;;;;;4945788;29;20441;-76
2021/11/07 13:37:37;;;;;;;2.10;1.20;;;11.60;78.40;;;;;;4947224;29;20440;-76
2021/11/07 13:40:22;;;;;;;1.70;1.30;;;11.80;77.80;;;;;;4950169;29;20427;-77
2021/11/07 13:42:48;;;;;;;1.63;1.03;;;11.70;77.60;;;;;;4949178;29;20507;-76
2021/11/07 13:45:26;;;;;;;2.77;1.50;;;11.70;77.60;;;;;;4940661;29;20584;-76
2021/11/07 13:47:52;;;;;;;1.50;1.10;;;11.80;77.60;;;;;;4950234;29;20455;-76
2021/11/07 13:50:22;;;;;;;2.53;1.30;;;11.90;77.10;;;;;;4955926;28;20439;-77
2021/11/07 13:52:52;;;;;;;1.93;1.30;;;11.70;78.10;;;;;;4950280;29;20423;-77
2021/11/07 13:55:17;;;;;;;1.80;1.40;;;11.60;78.40;;;;;;4950473;28;20443;-76
2021/11/07 13:57:45;;;;;;;2.10;1.20;;;11.60;78.00;;;;;;4956147;29;20814;-77
2021/11/07 14:00:14;;;;;;;1.93;1.60;;;11.40;78.00;;;;;;4950575;28;20195;-77
2021/11/07 14:02:52;;;;;;;2.20;1.37;;;11.40;78.30;;;;;;4955347;28;20420;-76
2021/11/07 14:05:20;;;;;;;2.07;1.50;;;11.40;78.40;;;;;;4954976;28;20442;-77
2021/11/07 14:08:15;;;;;;;3.50;1.60;;;11.40;78.40;;;;;;4955502;28;20926;-77
2021/11/07 14:10:41;;;;;;;2.70;1.47;;;11.50;78.60;;;;;;4949838;28;20434;-77
2021/11/07 14:13:12;;;;;;;2.13;1.70;;;11.50;78.60;;;;;;4972073;28;20450;-77
2021/11/07 14:15:43;;;;;;;2.80;1.30;;;11.30;79.50;;;;;;4962209;28;20746;-76
2021/11/07 14:18:11;;;;;;;1.60;1.20;;;11.20;80.30;;;;;;4971965;28;20910;-76
2021/11/07 14:20:42;;;;;;;1.47;1.00;;;11.20;80.80;;;;;;4971728;28;20430;-76
2021/11/07 14:23:18;;;;;;;1.00;0.70;;;11.10;81.80;;;;;;4963413;28;21220;-76
2021/11/07 14:25:53;;;;;;;4.10;1.63;;;11.00;83.30;;;;;;4971490;28;20477;-77
2021/11/07 14:28:23;;;;;;;1.87;1.20;;;11.00;84.00;;;;;;4971874;28;20973;-76
2021/11/07 14:30:51;;;;;;;2.63;1.60;;;10.90;84.30;;;;;;4959919;28;20845;-77
2021/11/07 14:33:26;;;;;;;2.37;1.40;;;10.60;85.20;;;;;;4971939;28;20418;-77
2021/11/07 14:35:56;;;;;;;2.90;1.40;;;10.60;85.30;;;;;;4972276;28;20466;-76
2021/11/07 14:38:32;;;;;;;2.10;1.40;;;10.60;85.70;;;;;;4972148;28;20473;-77
2021/11/07 14:43:37;;;;;;;2.83;2.10;;;10.50;86.90;;;;;;4974726;28;20538;-75
2021/11/07 14:46:12;;;;;;;2.07;1.67;;;10.40;87.40;;;;;;4974847;28;20294;-76
2021/11/07 14:59:58;;;;;;;2.63;1.43;;;10.20;89.30;;;;;;4966690;28;20422;-75
2021/11/07 15:05:06;;;;;;;3.60;1.60;;;10.10;89.90;;;;;;4971455;28;20797;-77
2021/11/07 15:13:20;;;;;;;4.60;1.77;;;10.20;89.20;;;;;;4962549;28;20449;-75
2021/11/07 15:18:15;;;;;;;2.83;1.97;;;10.20;89.00;;;;;;4962476;28;20461;-76
2021/11/07 15:20:52;;;;;;;1.70;1.50;;;10.30;88.90;;;;;;4975647;28;20259;-76
2021/11/07 15:23:39;;;;;;;2.70;1.60;;;10.10;88.90;;;;;;4975352;28;20478;-76
2021/11/07 15:26:21;;;;;;;2.60;1.87;;;10.10;89.30;;;;;;4978271;28;20513;-76
2021/11/07 15:29:12;;;;;;;5.93;2.00;;;10.00;90.30;;;;;;4978916;28;20427;-75
2021/11/07 15:31:38;;;;;;;7.50;1.80;;;9.80;91.10;;;;;;4975083;28;20514;-76
2021/11/07 15:34:26;;;;;;;3.80;2.13;;;9.60;91.50;;;;;;4971848;28;20426;-76
2021/11/07 15:36:52;;;;;;;3.73;1.97;;;9.60;91.70;;;;;;4952234;29;20510;-76
2021/11/07 15:39:21;;;;;;;2.27;1.77;;;9.60;91.80;;;;;;4952054;28;20511;-76
2021/11/07 15:42:11;;;;;;;4.43;2.30;;;9.50;92.00;;;;;;4940586;29;20442;-77
2021/11/07 15:44:49;;;;;;;4.57;2.47;;;9.40;92.40;;;;;;4947240;29;21286;-78
2021/11/07 15:47:18;;;;;;;2.67;2.20;;;9.40;92.70;;;;;;4948783;28;20887;-77
2021/11/07 16:06:08;;;;;;;4.20;2.67;;;9.20;94.10;;;;;;4952485;29;20243;-78
2021/11/07 16:13:29;;;;;;;4.90;2.40;;;9.40;93.30;;;;;;4952441;29;20434;-77
2021/11/07 16:18:31;;;;;;;6.43;2.40;;;9.40;92.70;;;;;;4949437;29;20449;-77
2021/11/07 16:20:57;;;;;;;5.13;2.60;;;9.40;92.50;;;;;;4948404;29;20432;-76